Terminal Aerodrome Forecast
Issued by NWS

Home | Current Version | Previous Version | Text Only | Print | Product List | Glossary On
Versions: 1 2 3 4 5 6 7 8 9 10 11 12 13 14 15 16 17 18 19 20 21 22 23 24 25 26
000
FTUS46 KPDT 180100 AAA
TAFPSC
TAF AMD
KPSC 180129Z 1801/1824 VRB04KT P6SM OVC020
     FM180600 VRB03KT 5SM BR OVC009
     FM180900 00000KT 4SM BR OVC005
     FM181700 VRB02KT 6SM BR OVC009
     FM182000 VRB02KT P6SM SCT009 OVC025=

USA.gov is the U.S. government's official web portal to all federal, state and local government web resources and services.